Time;durP1;ratioP1;P1;durP2;ratioP2;P2;SDS_P1;SDS_P2;PMS_P1;PMS_P2;Temp;Humidity;BMP_temperature;BMP_pressure;BME280_temperature;BME280_humidity;BME280_pressure;Samples;Min_cycle;Max_cycle;Signal;HPM_P1;HPM_P2
2023/08/03 00:00:37;;;;;;;6.18;2.90;;;;;;;;;;5122861;27;20050;-91
2023/08/03 00:03:22;;;;;;;8.98;3.00;;;;;;;;;;5119845;27;20064;-92
2023/08/03 00:06:07;;;;;;;6.03;3.30;;;;;;;;;;5141910;27;20034;-92
2023/08/03 00:08:55;;;;;;;7.20;3.53;;;;;;;;;;5143724;27;20030;-91
2023/08/03 00:11:39;;;;;;;6.25;3.60;;;;;;;;;;5134495;27;20523;-93
2023/08/03 00:14:25;;;;;;;9.63;3.80;;;;;;;;;;5137156;27;20061;-91
2023/08/03 00:17:09;;;;;;;6.28;3.60;;;;;;;;;;5130333;27;20481;-93
2023/08/03 00:19:54;;;;;;;11.25;3.45;;;;;;;;;;5119476;27;20119;-91
2023/08/03 00:22:38;;;;;;;11.30;3.85;;;;;;;;;;5135308;27;20042;-93
2023/08/03 00:25:24;;;;;;;6.53;3.70;;;;;;;;;;5145153;27;20065;-91
2023/08/03 00:28:09;;;;;;;7.35;3.83;;;;;;;;;;5148336;27;20073;-91
2023/08/03 00:30:54;;;;;;;8.68;3.75;;;;;;;;;;5134358;27;20053;-90
2023/08/03 00:33:38;;;;;;;9.02;3.97;;;;;;;;;;5133711;27;20090;-90
2023/08/03 00:36:23;;;;;;;12.13;4.32;;;;;;;;;;5126035;27;20034;-91
2023/08/03 00:39:07;;;;;;;7.60;3.75;;;;;;;;;;5143035;27;20577;-91
2023/08/03 00:41:52;;;;;;;9.85;3.70;;;;;;;;;;5138099;27;20514;-91
2023/08/03 00:44:37;;;;;;;5.88;4.05;;;;;;;;;;5133836;27;20497;-91
2023/08/03 00:47:21;;;;;;;7.78;3.88;;;;;;;;;;5134226;27;20041;-91
2023/08/03 00:50:07;;;;;;;10.85;4.00;;;;;;;;;;5145300;27;20079;-91
2023/08/03 00:52:51;;;;;;;5.70;3.90;;;;;;;;;;5118166;27;20058;-91
2023/08/03 00:55:36;;;;;;;5.03;3.88;;;;;;;;;;5133532;27;20045;-92
2023/08/03 00:58:20;;;;;;;8.13;3.55;;;;;;;;;;5124245;27;20087;-91
2023/08/03 01:01:05;;;;;;;8.55;3.63;;;;;;;;;;5147475;27;20042;-92
2023/08/03 01:03:52;;;;;;;9.57;3.58;;;;;;;;;;5133238;27;20038;-91
2023/08/03 01:06:36;;;;;;;7.75;3.42;;;;;;;;;;5133366;27;20038;-92
2023/08/03 01:09:21;;;;;;;12.70;3.72;;;;;;;;;;5134795;27;20041;-91
2023/08/03 01:12:05;;;;;;;10.75;3.65;;;;;;;;;;5118190;27;20037;-90
2023/08/03 01:14:50;;;;;;;7.03;3.13;;;;;;;;;;5133273;27;20038;-90
2023/08/03 01:17:35;;;;;;;6.75;3.50;;;;;;;;;;5148058;27;20033;-92
2023/08/03 01:20:21;;;;;;;10.93;3.40;;;;;;;;;;5139238;27;20126;-91
2023/08/03 01:23:06;;;;;;;6.35;3.30;;;;;;;;;;5134296;27;20038;-91
2023/08/03 01:25:51;;;;;;;3.63;3.15;;;;;;;;;;5133064;27;20395;-91
2023/08/03 01:28:35;;;;;;;8.05;3.17;;;;;;;;;;5148000;27;20119;-91
2023/08/03 01:31:20;;;;;;;3.70;3.05;;;;;;;;;;5143710;27;20099;-91
2023/08/03 01:34:04;;;;;;;5.70;2.90;;;;;;;;;;5134507;27;20415;-91
2023/08/03 01:36:49;;;;;;;5.05;3.17;;;;;;;;;;5145838;27;20045;-91
2023/08/03 01:39:33;;;;;;;4.82;3.03;;;;;;;;;;5133245;27;20497;-92
2023/08/03 01:42:18;;;;;;;4.68;3.53;;;;;;;;;;5133133;27;20074;-92
2023/08/03 01:45:03;;;;;;;4.65;3.42;;;;;;;;;;5117249;27;20380;-92
2023/08/03 01:47:47;;;;;;;6.25;3.72;;;;;;;;;;5114564;27;20387;-91
2023/08/03 01:50:32;;;;;;;3.90;3.45;;;;;;;;;;5133099;27;20065;-93
2023/08/03 01:53:17;;;;;;;3.88;3.33;;;;;;;;;;5133484;27;20038;-93
2023/08/03 01:56:01;;;;;;;5.35;3.80;;;;;;;;;;5132535;27;20042;-93
2023/08/03 01:58:46;;;;;;;4.88;3.53;;;;;;;;;;5117158;27;20038;-94
2023/08/03 02:01:30;;;;;;;4.10;3.53;;;;;;;;;;5134452;27;20046;-93
2023/08/03 02:04:15;;;;;;;4.10;3.67;;;;;;;;;;5147359;27;20091;-93
2023/08/03 02:07:08;;;;;;;5.43;3.97;;;;;;;;;;5130143;27;20406;-93
2023/08/03 02:09:52;;;;;;;4.38;3.60;;;;;;;;;;5128907;27;20099;-93
2023/08/03 02:12:37;;;;;;;7.55;4.25;;;;;;;;;;5133811;27;20103;-93
2023/08/03 02:15:22;;;;;;;5.85;4.40;;;;;;;;;;5132970;27;20045;-92
2023/08/03 02:18:07;;;;;;;11.82;4.25;;;;;;;;;;5137550;27;20389;-92
2023/08/03 02:20:51;;;;;;;7.30;3.90;;;;;;;;;;5132154;27;20054;-93
2023/08/03 02:23:36;;;;;;;5.63;3.80;;;;;;;;;;5146118;27;20041;-94
2023/08/03 02:26:21;;;;;;;4.63;4.10;;;;;;;;;;5137839;27;20037;-93
2023/08/03 02:29:05;;;;;;;6.57;4.00;;;;;;;;;;5152839;27;20065;-94
2023/08/03 02:31:50;;;;;;;9.45;4.47;;;;;;;;;;5136968;27;20087;-93
2023/08/03 02:34:34;;;;;;;9.68;4.57;;;;;;;;;;5150149;27;20046;-93
2023/08/03 02:37:19;;;;;;;5.18;4.22;;;;;;;;;;5138522;27;20126;-93
2023/08/03 02:40:08;;;;;;;9.63;4.70;;;;;;;;;;5152953;27;20042;-93
2023/08/03 02:42:52;;;;;;;6.95;4.50;;;;;;;;;;5115654;28;20559;-93
2023/08/03 02:45:37;;;;;;;12.52;4.85;;;;;;;;;;5137726;27;20049;-92
2023/08/03 02:48:22;;;;;;;6.80;4.45;;;;;;;;;;5153312;27;20083;-92
2023/08/03 02:51:06;;;;;;;6.78;4.82;;;;;;;;;;5152483;27;20042;-92
2023/08/03 02:53:53;;;;;;;7.55;4.53;;;;;;;;;;5155124;27;20038;-91
2023/08/03 02:56:38;;;;;;;5.30;4.80;;;;;;;;;;5145126;27;20087;-91
2023/08/03 02:59:22;;;;;;;10.02;4.82;;;;;;;;;;5141493;27;20041;-92
2023/08/03 03:02:07;;;;;;;5.63;4.80;;;;;;;;;;5140807;27;20073;-93
2023/08/03 03:04:52;;;;;;;6.35;4.95;;;;;;;;;;5155629;27;20085;-91
2023/08/03 03:07:37;;;;;;;7.10;4.68;;;;;;;;;;5142535;27;20123;-91
2023/08/03 03:10:21;;;;;;;9.05;5.13;;;;;;;;;;5157274;27;20080;-92
2023/08/03 03:13:06;;;;;;;7.95;5.15;;;;;;;;;;5140816;27;20030;-92
2023/08/03 03:15:50;;;;;;;7.28;6.00;;;;;;;;;;5155874;27;20045;-93
2023/08/03 03:18:35;;;;;;;10.77;6.20;;;;;;;;;;5143353;27;20042;-92
2023/08/03 03:21:20;;;;;;;11.27;6.82;;;;;;;;;;5156579;27;20452;-92
2023/08/03 03:24:05;;;;;;;8.40;6.95;;;;;;;;;;5156295;27;20136;-93
2023/08/03 03:26:49;;;;;;;9.00;6.80;;;;;;;;;;5153149;27;20041;-92
2023/08/03 03:29:34;;;;;;;17.52;7.53;;;;;;;;;;5156262;27;20501;-92
2023/08/03 03:32:18;;;;;;;14.38;8.75;;;;;;;;;;5156380;27;20054;-93
2023/08/03 03:35:03;;;;;;;17.88;9.02;;;;;;;;;;5136424;27;20437;-93
2023/08/03 03:37:47;;;;;;;15.40;9.38;;;;;;;;;;5127211;27;20034;-92
2023/08/03 03:40:32;;;;;;;16.60;9.77;;;;;;;;;;5120347;27;20084;-92
2023/08/03 03:43:16;;;;;;;21.27;11.00;;;;;;;;;;5115068;27;20038;-93
2023/08/03 03:46:02;;;;;;;14.30;9.68;;;;;;;;;;5119933;27;20045;-94
2023/08/03 03:48:46;;;;;;;18.67;9.85;;;;;;;;;;5135530;27;20034;-94
2023/08/03 03:51:31;;;;;;;17.63;10.45;;;;;;;;;;5120241;27;20418;-93
2023/08/03 03:54:15;;;;;;;20.50;10.90;;;;;;;;;;5135231;27;20054;-93
2023/08/03 03:57:00;;;;;;;14.82;10.60;;;;;;;;;;5136026;27;20087;-93
2023/08/03 03:59:45;;;;;;;17.48;11.15;;;;;;;;;;5142842;27;20100;-93
2023/08/03 04:02:30;;;;;;;21.33;10.75;;;;;;;;;;5148983;27;20563;-92
2023/08/03 04:05:14;;;;;;;15.10;9.57;;;;;;;;;;5131901;27;20049;-94
2023/08/03 04:07:59;;;;;;;17.92;9.45;;;;;;;;;;5119446;27;20042;-92
2023/08/03 04:10:43;;;;;;;14.55;9.68;;;;;;;;;;5120040;27;20038;-92
2023/08/03 04:13:28;;;;;;;19.50;9.80;;;;;;;;;;5148973;27;20087;-94
2023/08/03 04:16:15;;;;;;;19.33;9.85;;;;;;;;;;5135044;27;20108;-92
2023/08/03 04:18:59;;;;;;;23.77;10.77;;;;;;;;;;5136443;27;20490;-94
2023/08/03 04:21:44;;;;;;;18.10;9.60;;;;;;;;;;5138084;27;20099;-93
2023/08/03 04:24:30;;;;;;;22.95;10.52;;;;;;;;;;5135185;27;20414;-94
2023/08/03 04:27:17;;;;;;;20.60;10.43;;;;;;;;;;5120214;27;20038;-94
2023/08/03 04:30:02;;;;;;;23.75;9.98;;;;;;;;;;5134958;27;20041;-91
2023/08/03 04:32:47;;;;;;;18.77;9.35;;;;;;;;;;5155687;27;20065;-94
2023/08/03 04:35:32;;;;;;;19.52;9.02;;;;;;;;;;5155362;27;20118;-93
2023/08/03 04:38:16;;;;;;;20.10;8.63;;;;;;;;;;5155188;27;20455;-93
2023/08/03 04:41:01;;;;;;;25.20;8.38;;;;;;;;;;5145085;27;20042;-94
2023/08/03 04:43:45;;;;;;;26.95;7.78;;;;;;;;;;5139716;27;20033;-94
2023/08/03 04:46:30;;;;;;;17.13;7.78;;;;;;;;;;5154916;27;20038;-94
2023/08/03 04:49:15;;;;;;;18.30;7.70;;;;;;;;;;5134641;27;20038;-94
2023/08/03 04:51:59;;;;;;;15.70;7.10;;;;;;;;;;5127645;27;20091;-94
2023/08/03 04:54:45;;;;;;;21.95;7.32;;;;;;;;;;5155099;27;20126;-93
2023/08/03 04:57:30;;;;;;;20.73;7.63;;;;;;;;;;5139171;27;20049;-95
2023/08/03 05:00:14;;;;;;;17.25;6.78;;;;;;;;;;5136826;27;20091;-94
2023/08/03 05:02:59;;;;;;;16.48;6.75;;;;;;;;;;5133432;27;20045;-93
2023/08/03 05:05:44;;;;;;;12.10;5.97;;;;;;;;;;5144804;27;20042;-93
2023/08/03 05:08:28;;;;;;;17.10;5.95;;;;;;;;;;5133434;27;20042;-94
2023/08/03 05:11:13;;;;;;;12.90;5.93;;;;;;;;;;5149860;27;20042;-94
2023/08/03 05:13:57;;;;;;;19.90;5.80;;;;;;;;;;5132897;27;20098;-94
2023/08/03 05:16:42;;;;;;;12.50;6.22;;;;;;;;;;5116691;27;20540;-94
2023/08/03 05:19:29;;;;;;;16.98;6.53;;;;;;;;;;5135490;27;20841;-95
2023/08/03 05:22:14;;;;;;;11.82;5.85;;;;;;;;;;5134187;27;20053;-93
2023/08/03 05:24:59;;;;;;;22.10;6.07;;;;;;;;;;5141862;27;20142;-94
2023/08/03 05:27:43;;;;;;;15.52;5.88;;;;;;;;;;5123363;27;20501;-93
2023/08/03 05:30:28;;;;;;;17.45;6.03;;;;;;;;;;5146934;27;20039;-94
2023/08/03 05:33:12;;;;;;;17.52;6.30;;;;;;;;;;5133266;27;20054;-94
2023/08/03 05:35:57;;;;;;;20.83;6.30;;;;;;;;;;5122635;27;20041;-94
2023/08/03 05:38:41;;;;;;;18.00;6.50;;;;;;;;;;5145024;27;20070;-92
2023/08/03 05:41:27;;;;;;;23.90;6.32;;;;;;;;;;5145821;27;20046;-95
2023/08/03 05:44:13;;;;;;;20.38;6.50;;;;;;;;;;5134016;27;20053;-91
2023/08/03 05:46:57;;;;;;;13.00;6.55;;;;;;;;;;5122180;27;20057;-93
2023/08/03 05:49:42;;;;;;;25.92;7.07;;;;;;;;;;5125270;27;20063;-94
2023/08/03 05:52:27;;;;;;;17.75;6.55;;;;;;;;;;5137264;27;20050;-95
2023/08/03 05:55:12;;;;;;;16.40;7.72;;;;;;;;;;5128457;27;20062;-90
2023/08/03 05:57:56;;;;;;;20.08;7.00;;;;;;;;;;5152347;27;20033;-95
2023/08/03 06:00:41;;;;;;;20.83;6.47;;;;;;;;;;5151583;27;20093;-94
2023/08/03 06:03:26;;;;;;;13.25;6.70;;;;;;;;;;5150895;27;20106;-94
2023/08/03 06:06:11;;;;;;;12.23;6.85;;;;;;;;;;5147512;27;20583;-93
2023/08/03 06:08:58;;;;;;;18.80;7.03;;;;;;;;;;5133174;27;20034;-93
2023/08/03 06:11:42;;;;;;;15.05;6.57;;;;;;;;;;5132835;27;20071;-94
2023/08/03 06:14:27;;;;;;;14.15;6.38;;;;;;;;;;5132376;27;20459;-94
2023/08/03 06:17:12;;;;;;;14.13;6.40;;;;;;;;;;5151808;27;20080;-95
2023/08/03 06:19:57;;;;;;;14.90;6.10;;;;;;;;;;5143911;27;20546;-96
2023/08/03 06:22:42;;;;;;;15.77;6.28;;;;;;;;;;5126745;27;20046;-94
2023/08/03 06:25:27;;;;;;;9.48;6.25;;;;;;;;;;5131919;27;20046;-93
2023/08/03 06:28:11;;;;;;;13.35;5.60;;;;;;;;;;5133692;27;20030;-95
2023/08/03 06:30:56;;;;;;;10.07;5.32;;;;;;;;;;5117281;28;20096;-93
2023/08/03 06:33:42;;;;;;;11.38;5.50;;;;;;;;;;5132446;27;20109;-95
2023/08/03 06:36:27;;;;;;;13.70;5.88;;;;;;;;;;5116754;27;20075;-94
2023/08/03 06:39:12;;;;;;;17.20;5.95;;;;;;;;;;5109600;28;20034;-96
2023/08/03 06:41:56;;;;;;;14.40;5.63;;;;;;;;;;5133962;27;20402;-94
2023/08/03 06:44:41;;;;;;;9.88;4.85;;;;;;;;;;5130088;27;20142;-94
2023/08/03 06:47:25;;;;;;;4.75;4.20;;;;;;;;;;5139712;27;20042;-93
2023/08/03 06:50:10;;;;;;;12.65;5.80;;;;;;;;;;5131794;27;20046;-93
2023/08/03 06:52:56;;;;;;;9.43;4.72;;;;;;;;;;5149965;27;20037;-94
2023/08/03 06:55:40;;;;;;;9.45;4.40;;;;;;;;;;5129891;27;20533;-94
2023/08/03 06:58:25;;;;;;;5.60;3.50;;;;;;;;;;5125090;27;20064;-95
2023/08/03 07:01:09;;;;;;;7.68;3.30;;;;;;;;;;5132779;27;20124;-94
2023/08/03 07:03:54;;;;;;;9.77;3.40;;;;;;;;;;5136244;27;20055;-94
2023/08/03 07:06:38;;;;;;;10.80;3.13;;;;;;;;;;5151750;27;20075;-93
2023/08/03 07:09:24;;;;;;;7.95;2.95;;;;;;;;;;5138044;27;20066;-88
2023/08/03 07:12:12;;;;;;;5.20;2.72;;;;;;;;;;5130907;27;20037;-95
2023/08/03 07:14:56;;;;;;;6.22;2.42;;;;;;;;;;5130551;27;20115;-94
2023/08/03 07:17:41;;;;;;;3.95;1.90;;;;;;;;;;5131936;27;20088;-96
2023/08/03 07:20:25;;;;;;;5.13;2.00;;;;;;;;;;5131919;27;20120;-89
2023/08/03 07:23:10;;;;;;;3.17;1.55;;;;;;;;;;5116986;27;20055;-93
2023/08/03 07:25:54;;;;;;;7.53;2.05;;;;;;;;;;5132169;27;20070;-94
2023/08/03 07:28:39;;;;;;;5.05;1.73;;;;;;;;;;5146363;27;20122;-96
2023/08/03 07:31:26;;;;;;;2.65;1.50;;;;;;;;;;5119012;27;20041;-94
2023/08/03 07:34:10;;;;;;;9.15;1.90;;;;;;;;;;5153560;27;20057;-95
2023/08/03 07:36:55;;;;;;;5.70;1.50;;;;;;;;;;5152293;27;20091;-94
2023/08/03 07:39:40;;;;;;;9.60;1.70;;;;;;;;;;5154638;27;20406;-94
2023/08/03 07:42:24;;;;;;;8.45;1.70;;;;;;;;;;5156686;27;20046;-95
2023/08/03 07:45:09;;;;;;;4.82;1.50;;;;;;;;;;5156469;27;20090;-94
2023/08/03 07:47:54;;;;;;;5.28;1.80;;;;;;;;;;5157028;27;20083;-96
2023/08/03 07:50:39;;;;;;;3.88;1.60;;;;;;;;;;5141065;27;20387;-93
2023/08/03 07:53:24;;;;;;;3.75;1.45;;;;;;;;;;5120201;27;20054;-93
2023/08/03 07:56:15;;;;;;;3.67;1.70;;;;;;;;;;5127218;27;20544;-95
2023/08/03 07:59:00;;;;;;;5.88;1.75;;;;;;;;;;5135660;27;20678;-92
2023/08/03 08:01:45;;;;;;;5.38;1.60;;;;;;;;;;5146647;27;20091;-94
2023/08/03 08:04:29;;;;;;;4.60;1.50;;;;;;;;;;5155976;27;20064;-90
2023/08/03 08:07:14;;;;;;;4.50;2.00;;;;;;;;;;5156075;27;20154;-92
2023/08/03 08:09:58;;;;;;;5.35;1.60;;;;;;;;;;5143823;27;20095;-90
2023/08/03 08:12:43;;;;;;;4.70;1.42;;;;;;;;;;5133026;27;20042;-90
2023/08/03 08:15:28;;;;;;;5.28;1.67;;;;;;;;;;5136705;27;20502;-89
2023/08/03 08:18:12;;;;;;;5.95;1.60;;;;;;;;;;5155441;27;20132;-88
2023/08/03 08:20:58;;;;;;;3.13;1.55;;;;;;;;;;5155064;27;20444;-88
2023/08/03 08:23:42;;;;;;;2.60;1.20;;;;;;;;;;5134355;27;20042;-85
2023/08/03 08:26:28;;;;;;;2.80;1.08;;;;;;;;;;5118898;27;20066;-86
2023/08/03 08:29:13;;;;;;;3.63;1.27;;;;;;;;;;5150448;27;20037;-85
2023/08/03 08:31:58;;;;;;;5.78;1.27;;;;;;;;;;5137149;27;20178;-86
2023/08/03 08:34:42;;;;;;;3.15;1.10;;;;;;;;;;5151500;27;20042;-86
2023/08/03 08:37:29;;;;;;;5.78;1.10;;;;;;;;;;5148095;27;20053;-87
2023/08/03 08:40:13;;;;;;;2.25;1.25;;;;;;;;;;5124638;27;20042;-87
2023/08/03 08:42:58;;;;;;;2.67;0.88;;;;;;;;;;5153799;27;20415;-88
2023/08/03 08:45:42;;;;;;;2.45;1.10;;;;;;;;;;5154300;27;20083;-88
2023/08/03 08:48:26;;;;;;;6.82;1.33;;;;;;;;;;5139375;27;20080;-88
2023/08/03 08:51:12;;;;;;;3.20;1.35;;;;;;;;;;5154330;27;20041;-88
2023/08/03 08:53:56;;;;;;;5.15;1.52;;;;;;;;;;5152991;27;20033;-88
2023/08/03 08:56:41;;;;;;;4.10;1.70;;;;;;;;;;5151808;27;20037;-88
2023/08/03 08:59:27;;;;;;;3.53;1.40;;;;;;;;;;5150226;27;20072;-88
2023/08/03 09:02:11;;;;;;;4.40;1.30;;;;;;;;;;5155039;27;20439;-89
2023/08/03 09:04:56;;;;;;;4.35;1.40;;;;;;;;;;5155152;27;20037;-88
2023/08/03 09:07:41;;;;;;;3.72;1.50;;;;;;;;;;5154958;27;20463;-88
2023/08/03 09:10:26;;;;;;;5.10;1.38;;;;;;;;;;5157134;27;20033;-88
2023/08/03 09:13:24;;;;;;;4.43;1.45;;;;;;;;;;5155726;27;20083;-89
2023/08/03 09:16:15;;;;;;;5.10;1.50;;;;;;;;;;5155341;27;20052;-89
2023/08/03 09:19:00;;;;;;;4.00;1.33;;;;;;;;;;5155047;27;20167;-89
2023/08/03 09:21:58;;;;;;;5.28;1.42;;;;;;;;;;5154997;27;20508;-90
2023/08/03 09:24:46;;;;;;;5.68;1.70;;;;;;;;;;5154825;27;20443;-87
2023/08/03 09:27:31;;;;;;;5.03;1.45;;;;;;;;;;5155159;27;20386;-89
2023/08/03 09:30:16;;;;;;;3.30;1.00;;;;;;;;;;5139519;27;20041;-91
2023/08/03 09:33:01;;;;;;;2.20;1.05;;;;;;;;;;5154267;27;20057;-89
2023/08/03 09:35:45;;;;;;;5.22;1.70;;;;;;;;;;5138882;27;20125;-88
2023/08/03 09:38:30;;;;;;;4.10;1.73;;;;;;;;;;5155071;27;20508;-90
2023/08/03 09:41:15;;;;;;;5.63;1.30;;;;;;;;;;5154007;27;20148;-89
2023/08/03 09:44:02;;;;;;;3.78;1.45;;;;;;;;;;5153002;27;20034;-89
2023/08/03 09:46:49;;;;;;;3.00;1.20;;;;;;;;;;5154486;27;20076;-89
2023/08/03 09:49:34;;;;;;;4.20;1.38;;;;;;;;;;5142774;27;20048;-89
2023/08/03 09:52:22;;;;;;;4.78;1.25;;;;;;;;;;5154692;27;20045;-89
2023/08/03 09:55:12;;;;;;;4.55;1.20;;;;;;;;;;5139039;27;20034;-90
2023/08/03 09:58:03;;;;;;;7.53;1.52;;;;;;;;;;5154529;27;20080;-91
2023/08/03 10:00:48;;;;;;;6.07;1.55;;;;;;;;;;5153933;27;20091;-87
2023/08/03 10:03:33;;;;;;;5.63;1.65;;;;;;;;;;5139571;27;20402;-88
2023/08/03 10:06:20;;;;;;;5.07;1.52;;;;;;;;;;5138529;27;20539;-89
2023/08/03 10:09:05;;;;;;;4.95;1.23;;;;;;;;;;5153946;27;20061;-88
2023/08/03 10:11:53;;;;;;;5.78;1.60;;;;;;;;;;5153717;27;20080;-88
2023/08/03 10:14:43;;;;;;;8.52;1.60;;;;;;;;;;5154298;27;20103;-87
2023/08/03 10:17:29;;;;;;;7.25;2.88;;;;;;;;;;5138498;27;20114;-91
2023/08/03 10:20:15;;;;;;;11.93;2.67;;;;;;;;;;5153949;27;20042;-91
2023/08/03 10:23:07;;;;;;;30.55;8.95;;;;;;;;;;5153569;27;20226;-89
2023/08/03 10:25:59;;;;;;;9.52;2.42;;;;;;;;;;5153791;27;20059;-88
2023/08/03 10:28:46;;;;;;;8.70;2.15;;;;;;;;;;5154075;27;20442;-91
2023/08/03 10:31:31;;;;;;;57.70;15.07;;;;;;;;;;5154064;27;20463;-89
2023/08/03 10:34:23;;;;;;;7.25;1.77;;;;;;;;;;5158019;27;20402;-91
2023/08/03 10:37:12;;;;;;;7.55;1.67;;;;;;;;;;5153721;27;20042;-93
2023/08/03 10:40:01;;;;;;;6.90;2.15;;;;;;;;;;5153657;27;20030;-91
2023/08/03 10:43:05;;;;;;;6.55;1.92;;;;;;;;;;5153856;27;20391;-92
2023/08/03 10:45:50;;;;;;;6.18;1.60;;;;;;;;;;5153829;27;20042;-92
2023/08/03 10:48:37;;;;;;;4.53;1.40;;;;;;;;;;5138352;27;20045;-91
2023/08/03 10:51:23;;;;;;;7.78;1.45;;;;;;;;;;5123944;27;20470;-90
2023/08/03 10:54:08;;;;;;;7.53;1.50;;;;;;;;;;5153618;27;20592;-92
2023/08/03 10:57:02;;;;;;;5.32;1.75;;;;;;;;;;5153842;27;20038;-89
2023/08/03 10:59:48;;;;;;;5.43;1.70;;;;;;;;;;5154008;27;20037;-92
2023/08/03 11:02:34;;;;;;;4.60;1.52;;;;;;;;;;5153767;27;20046;-92
2023/08/03 11:05:19;;;;;;;3.78;1.33;;;;;;;;;;5153426;27;20442;-91
2023/08/03 11:08:04;;;;;;;5.93;1.60;;;;;;;;;;5153359;27;20033;-91
2023/08/03 11:10:49;;;;;;;6.85;1.80;;;;;;;;;;5153678;27;20065;-92
2023/08/03 11:13:34;;;;;;;7.30;1.63;;;;;;;;;;5154467;27;20467;-92
2023/08/03 11:16:19;;;;;;;4.28;1.48;;;;;;;;;;5157271;27;20034;-91
2023/08/03 11:19:03;;;;;;;3.78;1.45;;;;;;;;;;5156829;27;20033;-90
2023/08/03 11:21:48;;;;;;;7.15;1.63;;;;;;;;;;5156921;27;20085;-90
2023/08/03 11:24:32;;;;;;;3.40;1.30;;;;;;;;;;5141988;27;20347;-91
2023/08/03 11:27:17;;;;;;;5.05;1.33;;;;;;;;;;5141651;27;20542;-90
2023/08/03 11:30:03;;;;;;;3.80;1.35;;;;;;;;;;5157195;27;20509;-91
2023/08/03 11:32:48;;;;;;;4.75;1.65;;;;;;;;;;5157166;27;20068;-90
2023/08/03 11:35:32;;;;;;;6.22;1.58;;;;;;;;;;5157390;27;20127;-91
2023/08/03 11:38:16;;;;;;;7.10;1.90;;;;;;;;;;5157033;27;20038;-91
2023/08/03 11:41:01;;;;;;;3.20;1.40;;;;;;;;;;5157061;27;20461;-87
2023/08/03 11:43:49;;;;;;;3.08;1.30;;;;;;;;;;5157194;27;20077;-90
2023/08/03 11:46:34;;;;;;;2.67;1.13;;;;;;;;;;5157119;27;20042;-90
2023/08/03 11:49:22;;;;;;;5.53;1.70;;;;;;;;;;5156696;27;20091;-91
2023/08/03 11:52:06;;;;;;;3.35;1.35;;;;;;;;;;5156696;27;20091;-91
2023/08/03 11:54:51;;;;;;;5.70;1.50;;;;;;;;;;5156965;27;20126;-87
2023/08/03 12:00:40;;;;;;;3.97;1.50;;;;;;;;;;5156785;27;20065;-87
2023/08/03 12:03:31;;;;;;;5.75;1.73;;;;;;;;;;5155926;27;20054;-90
2023/08/03 12:06:16;;;;;;;7.70;1.50;;;;;;;;;;5140506;27;20065;-90
2023/08/03 12:09:00;;;;;;;4.95;1.55;;;;;;;;;;5156863;27;20500;-90
2023/08/03 12:11:45;;;;;;;3.75;1.38;;;;;;;;;;5156649;27;20138;-90
2023/08/03 12:14:29;;;;;;;3.17;1.30;;;;;;;;;;5156209;27;20034;-90
2023/08/03 12:17:14;;;;;;;5.90;1.73;;;;;;;;;;5156087;27;20041;-91
2023/08/03 12:19:58;;;;;;;4.47;1.48;;;;;;;;;;5156456;27;20083;-91
2023/08/03 12:22:43;;;;;;;5.40;1.40;;;;;;;;;;5156378;27;20110;-89
2023/08/03 12:25:27;;;;;;;3.65;1.48;;;;;;;;;;5155625;27;20095;-91
2023/08/03 12:28:12;;;;;;;2.85;1.33;;;;;;;;;;5155815;27;20038;-91
2023/08/03 12:30:57;;;;;;;2.55;1.58;;;;;;;;;;5156257;27;20110;-90
2023/08/03 12:33:41;;;;;;;4.53;1.35;;;;;;;;;;5156447;27;20058;-91
2023/08/03 12:36:26;;;;;;;2.83;1.30;;;;;;;;;;5155687;27;20045;-90
2023/08/03 12:39:11;;;;;;;4.22;1.52;;;;;;;;;;5155759;27;20034;-89
2023/08/03 12:41:56;;;;;;;3.63;1.55;;;;;;;;;;5156011;27;20048;-91
2023/08/03 12:44:40;;;;;;;3.03;1.40;;;;;;;;;;5156002;27;20041;-89
2023/08/03 12:47:25;;;;;;;4.75;1.42;;;;;;;;;;5139863;27;20037;-88
2023/08/03 12:50:09;;;;;;;6.78;2.08;;;;;;;;;;5140324;27;20041;-92
2023/08/03 12:52:54;;;;;;;7.57;2.03;;;;;;;;;;5155740;27;20497;-92
2023/08/03 12:55:38;;;;;;;5.18;1.80;;;;;;;;;;5155818;27;20034;-90
2023/08/03 12:58:23;;;;;;;4.57;1.60;;;;;;;;;;5139781;27;20406;-92
2023/08/03 13:01:08;;;;;;;5.05;1.70;;;;;;;;;;5155530;27;20053;-92
2023/08/03 13:03:52;;;;;;;8.57;1.60;;;;;;;;;;5155274;27;20046;-90
2023/08/03 13:06:37;;;;;;;7.47;1.80;;;;;;;;;;5154985;27;20501;-90
2023/08/03 13:09:21;;;;;;;6.65;2.05;;;;;;;;;;5139596;27;20398;-91
2023/08/03 13:12:06;;;;;;;7.25;2.17;;;;;;;;;;5155472;27;20069;-91
2023/08/03 13:14:50;;;;;;;5.68;1.63;;;;;;;;;;5139556;27;20100;-91
2023/08/03 13:17:35;;;;;;;4.95;1.52;;;;;;;;;;5155026;27;20104;-92
2023/08/03 13:20:20;;;;;;;5.40;1.60;;;;;;;;;;5154910;27;20046;-92
2023/08/03 13:23:05;;;;;;;5.13;1.88;;;;;;;;;;5155233;27;20379;-92
2023/08/03 13:25:50;;;;;;;5.53;2.30;;;;;;;;;;5155213;27;20117;-92
2023/08/03 13:28:35;;;;;;;8.05;2.65;;;;;;;;;;5154757;27;20736;-92
2023/08/03 13:31:19;;;;;;;8.60;1.92;;;;;;;;;;5154588;27;20501;-91
2023/08/03 13:34:04;;;;;;;6.97;2.10;;;;;;;;;;5139785;27;20114;-93
2023/08/03 13:36:49;;;;;;;7.47;2.03;;;;;;;;;;5152339;27;20173;-89
2023/08/03 13:39:34;;;;;;;8.75;2.22;;;;;;;;;;5138904;27;20206;-93
2023/08/03 13:42:18;;;;;;;13.48;2.80;;;;;;;;;;5154479;27;20049;-88
2023/08/03 13:45:03;;;;;;;13.43;3.30;;;;;;;;;;5154687;27;20038;-91
2023/08/03 13:47:47;;;;;;;13.07;3.72;;;;;;;;;;5154713;27;20083;-91
2023/08/03 13:50:32;;;;;;;11.48;3.00;;;;;;;;;;5154187;27;20535;-94
2023/08/03 13:53:16;;;;;;;12.07;3.40;;;;;;;;;;5139261;27;20083;-94
2023/08/03 13:56:01;;;;;;;7.93;2.45;;;;;;;;;;5139386;27;20064;-93
2023/08/03 13:58:46;;;;;;;9.68;2.90;;;;;;;;;;5154995;27;20041;-96
2023/08/03 14:01:37;;;;;;;7.50;2.90;;;;;;;;;;5154810;27;20489;-94
2023/08/03 14:04:22;;;;;;;11.38;2.67;;;;;;;;;;5138433;27;20489;-87
2023/08/03 14:07:07;;;;;;;6.20;2.33;;;;;;;;;;5138992;27;20133;-91
2023/08/03 14:09:51;;;;;;;7.15;2.53;;;;;;;;;;5154164;27;20042;-94
2023/08/03 14:12:36;;;;;;;7.82;2.28;;;;;;;;;;5153756;27;20065;-93
2023/08/03 14:15:21;;;;;;;7.53;2.55;;;;;;;;;;5154271;27;20122;-91
2023/08/03 14:18:06;;;;;;;8.77;3.08;;;;;;;;;;5138821;27;20037;-93
2023/08/03 14:20:51;;;;;;;11.25;2.53;;;;;;;;;;5154153;27;20037;-91
2023/08/03 14:23:36;;;;;;;6.30;2.50;;;;;;;;;;5123607;27;20037;-93
2023/08/03 14:26:20;;;;;;;8.45;2.28;;;;;;;;;;5154700;27;20118;-93
2023/08/03 14:29:05;;;;;;;13.55;2.85;;;;;;;;;;5154074;27;20038;-92
2023/08/03 14:31:50;;;;;;;13.45;2.75;;;;;;;;;;5153866;27;20041;-92
2023/08/03 14:34:34;;;;;;;8.05;2.80;;;;;;;;;;5154087;27;20104;-92
2023/08/03 14:37:19;;;;;;;11.30;2.80;;;;;;;;;;5153752;27;20041;-94
2023/08/03 14:40:04;;;;;;;11.70;2.83;;;;;;;;;;5138554;27;20041;-92
2023/08/03 14:42:49;;;;;;;12.25;2.85;;;;;;;;;;5153505;27;20414;-92
2023/08/03 14:45:33;;;;;;;16.30;3.38;;;;;;;;;;5153788;27;20060;-92
2023/08/03 14:48:18;;;;;;;18.35;4.82;;;;;;;;;;5140693;27;20048;-93
2023/08/03 14:51:03;;;;;;;6.05;2.78;;;;;;;;;;5158227;27;20038;-90
2023/08/03 14:53:48;;;;;;;10.98;2.65;;;;;;;;;;5127100;27;20038;-92
2023/08/03 14:56:33;;;;;;;10.52;2.70;;;;;;;;;;5142040;27;20134;-91
2023/08/03 14:59:17;;;;;;;9.10;4.05;;;;;;;;;;5157980;27;20058;-91
2023/08/03 15:02:03;;;;;;;12.18;3.20;;;;;;;;;;5157900;27;20046;-90
2023/08/03 15:04:47;;;;;;;5.53;2.85;;;;;;;;;;5157634;27;20110;-91
2023/08/03 15:07:32;;;;;;;12.20;2.60;;;;;;;;;;5141925;27;20170;-90
2023/08/03 15:10:17;;;;;;;7.53;2.75;;;;;;;;;;5157824;27;20095;-89
2023/08/03 15:13:01;;;;;;;5.88;2.70;;;;;;;;;;5157793;27;20041;-90
2023/08/03 15:15:46;;;;;;;11.00;2.95;;;;;;;;;;5157328;27;20037;-89
2023/08/03 15:18:30;;;;;;;10.10;3.60;;;;;;;;;;5157619;27;20083;-88
2023/08/03 15:21:16;;;;;;;13.13;3.75;;;;;;;;;;5157767;27;20089;-93
2023/08/03 15:24:01;;;;;;;9.93;3.30;;;;;;;;;;5157702;27;20037;-91
2023/08/03 15:26:47;;;;;;;13.15;3.63;;;;;;;;;;5157129;27;20042;-91
2023/08/03 15:29:31;;;;;;;10.27;3.30;;;;;;;;;;5157430;27;20049;-86
2023/08/03 15:32:19;;;;;;;8.20;3.53;;;;;;;;;;5157679;27;20492;-90
2023/08/03 15:35:03;;;;;;;13.93;3.75;;;;;;;;;;5157161;27;20054;-90
2023/08/03 15:37:48;;;;;;;9.35;3.03;;;;;;;;;;5157040;27;20102;-90
2023/08/03 15:40:35;;;;;;;13.50;3.97;;;;;;;;;;5127590;27;20123;-87
2023/08/03 15:43:20;;;;;;;15.98;4.00;;;;;;;;;;5157432;27;20057;-93
2023/08/03 15:46:05;;;;;;;10.52;3.70;;;;;;;;;;5157473;27;20049;-91
2023/08/03 15:48:50;;;;;;;10.90;3.13;;;;;;;;;;5157531;27;20042;-93
2023/08/03 15:51:35;;;;;;;16.33;4.03;;;;;;;;;;5141417;27;20135;-92
2023/08/03 15:54:19;;;;;;;16.25;4.15;;;;;;;;;;5156915;27;20074;-88
2023/08/03 15:57:05;;;;;;;15.27;3.55;;;;;;;;;;5156980;27;20086;-88
2023/08/03 15:59:50;;;;;;;15.32;3.33;;;;;;;;;;5156505;27;20111;-87
2023/08/03 16:02:34;;;;;;;15.55;3.63;;;;;;;;;;5142329;27;20092;-88
2023/08/03 16:05:19;;;;;;;9.55;3.97;;;;;;;;;;5158334;27;20451;-87
2023/08/03 16:08:03;;;;;;;18.60;3.83;;;;;;;;;;5157704;27;20485;-87
2023/08/03 16:10:48;;;;;;;12.07;3.38;;;;;;;;;;5156983;27;20539;-89
2023/08/03 16:13:33;;;;;;;11.10;3.47;;;;;;;;;;5156705;27;20079;-88
2023/08/03 16:16:18;;;;;;;17.38;3.35;;;;;;;;;;5156556;27;20046;-86
2023/08/03 16:19:03;;;;;;;11.20;3.38;;;;;;;;;;5156385;27;20123;-86
2023/08/03 16:21:48;;;;;;;18.58;3.95;;;;;;;;;;5156081;27;20041;-88
2023/08/03 16:24:32;;;;;;;14.85;3.33;;;;;;;;;;5156545;27;20038;-90
2023/08/03 16:27:17;;;;;;;13.13;3.30;;;;;;;;;;5156362;27;20079;-88